Terminal Aerodrome Forecast
Issued by NWS Buffalo, NY

Home | Current Version | Previous Version | Text Only | Print | Product List | Glossary On
Versions: 1 2 3 4 5 6 7 8 9 10 11 12 13 14 15 16 17 18 19 20 21 22 23 24 25 26 27 28
483
FTUS41 KBUF 062021 AAA
TAFART
TAF AMD
KART 062021Z 0620/0718 23014KT P6SM BKN040
     FM070300 24008KT P6SM BKN040
     FM071000 22008KT P6SM VCSH BKN025
     FM071600 20006KT P6SM BKN040=

USA.gov is the U.S. government's official web portal to all federal, state and local government web resources and services.